sensor_id;sensor_type;location;lat;lon;timestamp;P1;durP1;ratioP1;P2;durP2;ratioP2
18720;SDS011;9489;50.948;3.114;2023-07-28T00:02:00;8.55;;;5.28;;
18720;SDS011;9489;50.948;3.114;2023-07-28T00:04:26;7.07;;;5.13;;
18720;SDS011;9489;50.948;3.114;2023-07-28T00:06:51;5.47;;;4.97;;
18720;SDS011;9489;50.948;3.114;2023-07-28T00:09:17;5.75;;;5.25;;
18720;SDS011;9489;50.948;3.114;2023-07-28T00:11:42;5.78;;;4.72;;
18720;SDS011;9489;50.948;3.114;2023-07-28T00:14:08;5.75;;;5.18;;
18720;SDS011;9489;50.948;3.114;2023-07-28T00:16:34;5.90;;;4.60;;
18720;SDS011;9489;50.948;3.114;2023-07-28T00:18:59;4.55;;;4.15;;
18720;SDS011;9489;50.948;3.114;2023-07-28T00:21:26;7.00;;;5.15;;
18720;SDS011;9489;50.948;3.114;2023-07-28T00:23:51;7.90;;;4.63;;
18720;SDS011;9489;50.948;3.114;2023-07-28T00:26:17;5.03;;;4.55;;
18720;SDS011;9489;50.948;3.114;2023-07-28T00:28:42;6.80;;;4.85;;
18720;SDS011;9489;50.948;3.114;2023-07-28T00:31:08;6.63;;;5.07;;
18720;SDS011;9489;50.948;3.114;2023-07-28T00:33:34;7.75;;;4.47;;
18720;SDS011;9489;50.948;3.114;2023-07-28T00:35:59;5.82;;;4.65;;
18720;SDS011;9489;50.948;3.114;2023-07-28T00:38:25;6.80;;;4.78;;
18720;SDS011;9489;50.948;3.114;2023-07-28T00:40:50;6.40;;;4.68;;
18720;SDS011;9489;50.948;3.114;2023-07-28T00:43:16;5.55;;;4.63;;
18720;SDS011;9489;50.948;3.114;2023-07-28T00:45:41;7.93;;;5.78;;
18720;SDS011;9489;50.948;3.114;2023-07-28T00:48:10;6.40;;;4.95;;
18720;SDS011;9489;50.948;3.114;2023-07-28T00:50:38;7.50;;;5.32;;
18720;SDS011;9489;50.948;3.114;2023-07-28T00:53:05;6.38;;;5.57;;
18720;SDS011;9489;50.948;3.114;2023-07-28T00:55:31;6.88;;;5.35;;
18720;SDS011;9489;50.948;3.114;2023-07-28T00:57:57;7.80;;;6.22;;
18720;SDS011;9489;50.948;3.114;2023-07-28T01:00:23;7.72;;;5.82;;
18720;SDS011;9489;50.948;3.114;2023-07-28T01:02:49;7.85;;;5.70;;
18720;SDS011;9489;50.948;3.114;2023-07-28T01:05:15;7.65;;;5.70;;
18720;SDS011;9489;50.948;3.114;2023-07-28T01:07:47;7.47;;;5.60;;
18720;SDS011;9489;50.948;3.114;2023-07-28T01:10:31;6.82;;;5.95;;
18720;SDS011;9489;50.948;3.114;2023-07-28T01:12:57;8.52;;;5.25;;
18720;SDS011;9489;50.948;3.114;2023-07-28T01:15:23;5.82;;;5.25;;
18720;SDS011;9489;50.948;3.114;2023-07-28T01:17:49;8.20;;;5.82;;
18720;SDS011;9489;50.948;3.114;2023-07-28T01:20:15;6.13;;;5.22;;
18720;SDS011;9489;50.948;3.114;2023-07-28T01:28:21;7.28;;;5.20;;
18720;SDS011;9489;50.948;3.114;2023-07-28T01:30:48;5.70;;;5.18;;
18720;SDS011;9489;50.948;3.114;2023-07-28T01:33:13;7.00;;;6.15;;
18720;SDS011;9489;50.948;3.114;2023-07-28T01:35:39;5.95;;;4.55;;
18720;SDS011;9489;50.948;3.114;2023-07-28T01:38:04;5.82;;;5.20;;
18720;SDS011;9489;50.948;3.114;2023-07-28T01:40:30;5.22;;;4.68;;
18720;SDS011;9489;50.948;3.114;2023-07-28T01:42:56;6.03;;;4.47;;
18720;SDS011;9489;50.948;3.114;2023-07-28T01:45:21;5.07;;;4.63;;
18720;SDS011;9489;50.948;3.114;2023-07-28T01:47:47;5.93;;;4.13;;
18720;SDS011;9489;50.948;3.114;2023-07-28T01:50:12;5.35;;;4.15;;
18720;SDS011;9489;50.948;3.114;2023-07-28T01:52:38;5.47;;;4.38;;
18720;SDS011;9489;50.948;3.114;2023-07-28T01:55:04;5.18;;;4.25;;
18720;SDS011;9489;50.948;3.114;2023-07-28T01:57:32;6.60;;;4.40;;
18720;SDS011;9489;50.948;3.114;2023-07-28T01:59:58;4.22;;;3.60;;
18720;SDS011;9489;50.948;3.114;2023-07-28T02:02:24;4.38;;;4.00;;
18720;SDS011;9489;50.948;3.114;2023-07-28T02:04:50;4.13;;;3.75;;
18720;SDS011;9489;50.948;3.114;2023-07-28T02:07:15;4.00;;;3.60;;
18720;SDS011;9489;50.948;3.114;2023-07-28T02:09:41;4.28;;;3.92;;
18720;SDS011;9489;50.948;3.114;2023-07-28T02:12:07;5.18;;;3.83;;
18720;SDS011;9489;50.948;3.114;2023-07-28T02:14:32;4.22;;;3.83;;
18720;SDS011;9489;50.948;3.114;2023-07-28T02:16:58;4.22;;;3.83;;
18720;SDS011;9489;50.948;3.114;2023-07-28T02:19:24;4.43;;;4.03;;
18720;SDS011;9489;50.948;3.114;2023-07-28T02:21:50;4.00;;;3.50;;
18720;SDS011;9489;50.948;3.114;2023-07-28T02:24:15;4.38;;;3.30;;
18720;SDS011;9489;50.948;3.114;2023-07-28T02:26:41;4.00;;;3.65;;
18720;SDS011;9489;50.948;3.114;2023-07-28T02:29:07;4.57;;;3.13;;
18720;SDS011;9489;50.948;3.114;2023-07-28T02:31:32;3.53;;;2.97;;
18720;SDS011;9489;50.948;3.114;2023-07-28T02:33:58;3.55;;;2.75;;
18720;SDS011;9489;50.948;3.114;2023-07-28T02:36:23;6.97;;;3.42;;
18720;SDS011;9489;50.948;3.114;2023-07-28T02:38:49;3.10;;;2.78;;
18720;SDS011;9489;50.948;3.114;2023-07-28T02:41:14;3.55;;;3.13;;
18720;SDS011;9489;50.948;3.114;2023-07-28T02:43:40;3.05;;;2.85;;
18720;SDS011;9489;50.948;3.114;2023-07-28T02:46:06;3.42;;;2.63;;
18720;SDS011;9489;50.948;3.114;2023-07-28T02:48:32;3.75;;;2.92;;
18720;SDS011;9489;50.948;3.114;2023-07-28T02:50:57;3.17;;;2.88;;
18720;SDS011;9489;50.948;3.114;2023-07-28T02:53:23;3.00;;;2.67;;
18720;SDS011;9489;50.948;3.114;2023-07-28T02:55:49;4.60;;;2.97;;
18720;SDS011;9489;50.948;3.114;2023-07-28T02:58:14;3.40;;;3.10;;
18720;SDS011;9489;50.948;3.114;2023-07-28T03:00:41;2.85;;;2.65;;
18720;SDS011;9489;50.948;3.114;2023-07-28T03:03:09;3.20;;;2.90;;
18720;SDS011;9489;50.948;3.114;2023-07-28T03:05:36;3.88;;;3.10;;
18720;SDS011;9489;50.948;3.114;2023-07-28T03:08:03;2.92;;;2.72;;
18720;SDS011;9489;50.948;3.114;2023-07-28T03:10:28;4.82;;;3.17;;
18720;SDS011;9489;50.948;3.114;2023-07-28T03:12:54;3.92;;;3.22;;
18720;SDS011;9489;50.948;3.114;2023-07-28T03:15:20;3.75;;;3.45;;
18720;SDS011;9489;50.948;3.114;2023-07-28T03:17:51;3.70;;;3.38;;
18720;SDS011;9489;50.948;3.114;2023-07-28T03:20:19;4.65;;;3.58;;
18720;SDS011;9489;50.948;3.114;2023-07-28T03:22:44;3.83;;;3.45;;
18720;SDS011;9489;50.948;3.114;2023-07-28T03:25:10;3.75;;;3.45;;
18720;SDS011;9489;50.948;3.114;2023-07-28T03:27:37;5.03;;;4.00;;
18720;SDS011;9489;50.948;3.114;2023-07-28T03:30:03;5.38;;;3.40;;
18720;SDS011;9489;50.948;3.114;2023-07-28T03:32:31;3.25;;;2.90;;
18720;SDS011;9489;50.948;3.114;2023-07-28T03:34:57;3.65;;;3.10;;
18720;SDS011;9489;50.948;3.114;2023-07-28T03:37:23;4.15;;;3.00;;
18720;SDS011;9489;50.948;3.114;2023-07-28T03:39:48;5.22;;;3.42;;
18720;SDS011;9489;50.948;3.114;2023-07-28T03:42:14;3.38;;;3.08;;
18720;SDS011;9489;50.948;3.114;2023-07-28T03:44:40;4.03;;;3.00;;
18720;SDS011;9489;50.948;3.114;2023-07-28T03:47:06;3.58;;;3.28;;
18720;SDS011;9489;50.948;3.114;2023-07-28T03:49:32;3.88;;;3.20;;
18720;SDS011;9489;50.948;3.114;2023-07-28T03:51:58;3.63;;;3.00;;
18720;SDS011;9489;50.948;3.114;2023-07-28T03:54:24;3.83;;;3.13;;
18720;SDS011;9489;50.948;3.114;2023-07-28T03:56:49;3.45;;;3.08;;
18720;SDS011;9489;50.948;3.114;2023-07-28T03:59:15;4.82;;;2.92;;
18720;SDS011;9489;50.948;3.114;2023-07-28T04:01:40;3.63;;;3.28;;
18720;SDS011;9489;50.948;3.114;2023-07-28T04:04:06;5.40;;;3.38;;
18720;SDS011;9489;50.948;3.114;2023-07-28T04:06:42;5.95;;;3.85;;
18720;SDS011;9489;50.948;3.114;2023-07-28T04:09:09;5.25;;;3.78;;
18720;SDS011;9489;50.948;3.114;2023-07-28T04:11:36;6.10;;;4.15;;
18720;SDS011;9489;50.948;3.114;2023-07-28T04:14:02;6.10;;;4.65;;
18720;SDS011;9489;50.948;3.114;2023-07-28T04:16:28;8.38;;;4.35;;
18720;SDS011;9489;50.948;3.114;2023-07-28T04:18:54;5.82;;;5.03;;
18720;SDS011;9489;50.948;3.114;2023-07-28T04:21:19;6.95;;;5.22;;
18720;SDS011;9489;50.948;3.114;2023-07-28T04:23:45;6.25;;;4.75;;
18720;SDS011;9489;50.948;3.114;2023-07-28T04:26:11;6.07;;;4.72;;
18720;SDS011;9489;50.948;3.114;2023-07-28T04:28:36;7.00;;;5.10;;
18720;SDS011;9489;50.948;3.114;2023-07-28T04:31:02;5.47;;;4.47;;
18720;SDS011;9489;50.948;3.114;2023-07-28T04:33:27;5.82;;;4.88;;
18720;SDS011;9489;50.948;3.114;2023-07-28T04:35:53;5.32;;;4.75;;
18720;SDS011;9489;50.948;3.114;2023-07-28T04:38:18;6.93;;;5.05;;
18720;SDS011;9489;50.948;3.114;2023-07-28T04:40:44;5.00;;;4.50;;
18720;SDS011;9489;50.948;3.114;2023-07-28T04:43:10;6.35;;;4.80;;
18720;SDS011;9489;50.948;3.114;2023-07-28T04:45:35;6.00;;;4.25;;
18720;SDS011;9489;50.948;3.114;2023-07-28T04:48:01;6.03;;;4.07;;
18720;SDS011;9489;50.948;3.114;2023-07-28T04:50:27;6.38;;;4.13;;
18720;SDS011;9489;50.948;3.114;2023-07-28T04:52:53;5.45;;;4.20;;
18720;SDS011;9489;50.948;3.114;2023-07-28T04:55:19;5.82;;;4.63;;
18720;SDS011;9489;50.948;3.114;2023-07-28T04:57:45;8.00;;;4.55;;
18720;SDS011;9489;50.948;3.114;2023-07-28T05:00:11;6.80;;;4.50;;
18720;SDS011;9489;50.948;3.114;2023-07-28T05:02:37;5.50;;;4.72;;
18720;SDS011;9489;50.948;3.114;2023-07-28T05:05:03;5.72;;;5.10;;
18720;SDS011;9489;50.948;3.114;2023-07-28T05:07:28;5.28;;;4.50;;
18720;SDS011;9489;50.948;3.114;2023-07-28T05:09:54;7.25;;;5.63;;
18720;SDS011;9489;50.948;3.114;2023-07-28T05:12:20;5.97;;;5.28;;
18720;SDS011;9489;50.948;3.114;2023-07-28T05:14:45;6.35;;;5.75;;
18720;SDS011;9489;50.948;3.114;2023-07-28T05:17:11;10.32;;;6.85;;
18720;SDS011;9489;50.948;3.114;2023-07-28T05:19:37;6.90;;;6.18;;
18720;SDS011;9489;50.948;3.114;2023-07-28T05:22:02;7.85;;;7.05;;
18720;SDS011;9489;50.948;3.114;2023-07-28T05:24:28;9.07;;;6.40;;
18720;SDS011;9489;50.948;3.114;2023-07-28T05:26:54;7.20;;;6.50;;
18720;SDS011;9489;50.948;3.114;2023-07-28T05:29:19;8.23;;;7.50;;
18720;SDS011;9489;50.948;3.114;2023-07-28T05:31:45;9.85;;;7.82;;
18720;SDS011;9489;50.948;3.114;2023-07-28T05:34:10;8.95;;;7.57;;
18720;SDS011;9489;50.948;3.114;2023-07-28T05:36:38;10.88;;;7.40;;
18720;SDS011;9489;50.948;3.114;2023-07-28T05:39:04;9.98;;;8.30;;
18720;SDS011;9489;50.948;3.114;2023-07-28T05:41:30;13.00;;;7.68;;
18720;SDS011;9489;50.948;3.114;2023-07-28T05:43:56;9.52;;;7.47;;
18720;SDS011;9489;50.948;3.114;2023-07-28T05:46:21;9.98;;;7.68;;
18720;SDS011;9489;50.948;3.114;2023-07-28T05:48:47;13.30;;;8.93;;
18720;SDS011;9489;50.948;3.114;2023-07-28T05:51:12;11.00;;;8.90;;
18720;SDS011;9489;50.948;3.114;2023-07-28T05:53:38;11.25;;;8.13;;
18720;SDS011;9489;50.948;3.114;2023-07-28T05:56:03;10.25;;;8.00;;
18720;SDS011;9489;50.948;3.114;2023-07-28T05:58:29;9.20;;;7.88;;
18720;SDS011;9489;50.948;3.114;2023-07-28T06:00:55;10.98;;;8.02;;
18720;SDS011;9489;50.948;3.114;2023-07-28T06:03:21;10.27;;;7.38;;
18720;SDS011;9489;50.948;3.114;2023-07-28T06:05:47;9.52;;;8.52;;
18720;SDS011;9489;50.948;3.114;2023-07-28T06:08:12;10.95;;;7.80;;
18720;SDS011;9489;50.948;3.114;2023-07-28T06:10:39;9.23;;;8.07;;
18720;SDS011;9489;50.948;3.114;2023-07-28T06:13:04;11.65;;;8.48;;
18720;SDS011;9489;50.948;3.114;2023-07-28T06:15:30;10.40;;;8.02;;
18720;SDS011;9489;50.948;3.114;2023-07-28T06:17:56;13.02;;;8.18;;
18720;SDS011;9489;50.948;3.114;2023-07-28T06:20:21;10.80;;;8.65;;
18720;SDS011;9489;50.948;3.114;2023-07-28T06:22:47;9.65;;;8.70;;
18720;SDS011;9489;50.948;3.114;2023-07-28T06:25:13;9.73;;;8.15;;
18720;SDS011;9489;50.948;3.114;2023-07-28T06:27:38;11.65;;;8.57;;
18720;SDS011;9489;50.948;3.114;2023-07-28T06:30:04;12.70;;;8.27;;
18720;SDS011;9489;50.948;3.114;2023-07-28T06:32:30;9.80;;;8.10;;
18720;SDS011;9489;50.948;3.114;2023-07-28T06:34:56;10.75;;;9.18;;
18720;SDS011;9489;50.948;3.114;2023-07-28T06:37:22;9.52;;;7.90;;
18720;SDS011;9489;50.948;3.114;2023-07-28T06:39:48;11.00;;;8.48;;
18720;SDS011;9489;50.948;3.114;2023-07-28T06:42:14;14.00;;;10.07;;
18720;SDS011;9489;50.948;3.114;2023-07-28T06:44:41;11.45;;;9.10;;
18720;SDS011;9489;50.948;3.114;2023-07-28T06:47:07;14.50;;;9.40;;
18720;SDS011;9489;50.948;3.114;2023-07-28T06:49:32;10.88;;;8.75;;
18720;SDS011;9489;50.948;3.114;2023-07-28T06:51:58;10.38;;;8.55;;
18720;SDS011;9489;50.948;3.114;2023-07-28T06:54:24;11.82;;;9.23;;
18720;SDS011;9489;50.948;3.114;2023-07-28T06:56:50;15.13;;;9.65;;
18720;SDS011;9489;50.948;3.114;2023-07-28T06:59:15;12.65;;;9.18;;
18720;SDS011;9489;50.948;3.114;2023-07-28T07:01:41;10.77;;;8.15;;
18720;SDS011;9489;50.948;3.114;2023-07-28T07:04:06;14.18;;;8.60;;
18720;SDS011;9489;50.948;3.114;2023-07-28T07:06:32;13.13;;;8.55;;
18720;SDS011;9489;50.948;3.114;2023-07-28T07:08:58;12.75;;;8.27;;
18720;SDS011;9489;50.948;3.114;2023-07-28T07:11:23;11.60;;;8.40;;
18720;SDS011;9489;50.948;3.114;2023-07-28T07:13:49;10.13;;;8.02;;
18720;SDS011;9489;50.948;3.114;2023-07-28T07:16:15;9.13;;;7.93;;
18720;SDS011;9489;50.948;3.114;2023-07-28T07:18:41;9.25;;;7.53;;
18720;SDS011;9489;50.948;3.114;2023-07-28T07:21:10;10.85;;;7.63;;
18720;SDS011;9489;50.948;3.114;2023-07-28T07:23:36;8.55;;;6.90;;
18720;SDS011;9489;50.948;3.114;2023-07-28T07:26:02;9.68;;;6.70;;
18720;SDS011;9489;50.948;3.114;2023-07-28T07:28:28;8.75;;;7.65;;
18720;SDS011;9489;50.948;3.114;2023-07-28T07:30:56;8.90;;;7.68;;
18720;SDS011;9489;50.948;3.114;2023-07-28T07:33:23;8.43;;;7.63;;
18720;SDS011;9489;50.948;3.114;2023-07-28T07:35:49;9.73;;;6.93;;
18720;SDS011;9489;50.948;3.114;2023-07-28T07:38:15;8.05;;;6.97;;
18720;SDS011;9489;50.948;3.114;2023-07-28T07:40:40;8.07;;;6.78;;
18720;SDS011;9489;50.948;3.114;2023-07-28T07:43:06;7.65;;;6.57;;
18720;SDS011;9489;50.948;3.114;2023-07-28T07:45:31;8.00;;;7.20;;
18720;SDS011;9489;50.948;3.114;2023-07-28T07:47:58;8.18;;;7.45;;
18720;SDS011;9489;50.948;3.114;2023-07-28T07:50:24;8.35;;;7.45;;
18720;SDS011;9489;50.948;3.114;2023-07-28T07:52:50;7.95;;;6.45;;
18720;SDS011;9489;50.948;3.114;2023-07-28T07:55:15;7.57;;;6.88;;
18720;SDS011;9489;50.948;3.114;2023-07-28T07:57:41;6.57;;;5.97;;
18720;SDS011;9489;50.948;3.114;2023-07-28T08:00:07;6.82;;;5.45;;
18720;SDS011;9489;50.948;3.114;2023-07-28T08:02:34;5.55;;;5.05;;
18720;SDS011;9489;50.948;3.114;2023-07-28T08:04:59;6.20;;;5.00;;
18720;SDS011;9489;50.948;3.114;2023-07-28T08:07:25;7.05;;;5.38;;
18720;SDS011;9489;50.948;3.114;2023-07-28T08:09:51;5.55;;;5.05;;
18720;SDS011;9489;50.948;3.114;2023-07-28T08:12:17;5.75;;;4.20;;
18720;SDS011;9489;50.948;3.114;2023-07-28T08:14:42;5.43;;;4.10;;
18720;SDS011;9489;50.948;3.114;2023-07-28T08:17:09;5.30;;;3.97;;
18720;SDS011;9489;50.948;3.114;2023-07-28T08:19:34;4.10;;;3.67;;
18720;SDS011;9489;50.948;3.114;2023-07-28T08:22:01;4.05;;;3.55;;
18720;SDS011;9489;50.948;3.114;2023-07-28T08:24:28;4.35;;;3.75;;
18720;SDS011;9489;50.948;3.114;2023-07-28T08:26:54;4.28;;;3.33;;
18720;SDS011;9489;50.948;3.114;2023-07-28T08:29:20;5.03;;;4.30;;
18720;SDS011;9489;50.948;3.114;2023-07-28T08:31:45;6.38;;;4.10;;
18720;SDS011;9489;50.948;3.114;2023-07-28T08:34:12;5.75;;;3.75;;
18720;SDS011;9489;50.948;3.114;2023-07-28T08:36:37;7.25;;;4.07;;
18720;SDS011;9489;50.948;3.114;2023-07-28T08:39:03;4.65;;;3.58;;
18720;SDS011;9489;50.948;3.114;2023-07-28T08:41:30;5.30;;;3.47;;
18720;SDS011;9489;50.948;3.114;2023-07-28T08:43:55;3.72;;;3.40;;
18720;SDS011;9489;50.948;3.114;2023-07-28T08:46:22;3.80;;;3.50;;
18720;SDS011;9489;50.948;3.114;2023-07-28T08:48:48;3.92;;;3.50;;
18720;SDS011;9489;50.948;3.114;2023-07-28T08:51:13;3.85;;;3.55;;
18720;SDS011;9489;50.948;3.114;2023-07-28T08:53:39;3.85;;;3.55;;
18720;SDS011;9489;50.948;3.114;2023-07-28T08:56:05;4.38;;;3.97;;
18720;SDS011;9489;50.948;3.114;2023-07-28T08:58:31;3.42;;;3.13;;
18720;SDS011;9489;50.948;3.114;2023-07-28T09:00:57;3.78;;;3.40;;
18720;SDS011;9489;50.948;3.114;2023-07-28T09:03:26;3.03;;;2.80;;
18720;SDS011;9489;50.948;3.114;2023-07-28T09:05:53;2.85;;;2.42;;
18720;SDS011;9489;50.948;3.114;2023-07-28T09:08:31;1.90;;;1.70;;
18720;SDS011;9489;50.948;3.114;2023-07-28T09:10:57;1.80;;;1.52;;
18720;SDS011;9489;50.948;3.114;2023-07-28T09:13:32;2.00;;;1.60;;
18720;SDS011;9489;50.948;3.114;2023-07-28T09:16:04;1.48;;;1.38;;
18720;SDS011;9489;50.948;3.114;2023-07-28T09:18:30;1.30;;;1.20;;
18720;SDS011;9489;50.948;3.114;2023-07-28T09:20:56;1.38;;;1.10;;
18720;SDS011;9489;50.948;3.114;2023-07-28T09:23:29;1.27;;;1.10;;
18720;SDS011;9489;50.948;3.114;2023-07-28T09:26:01;1.77;;;1.20;;
18720;SDS011;9489;50.948;3.114;2023-07-28T09:28:36;1.45;;;1.00;;
18720;SDS011;9489;50.948;3.114;2023-07-28T09:31:03;1.20;;;1.00;;
18720;SDS011;9489;50.948;3.114;2023-07-28T09:33:31;1.30;;;0.93;;
18720;SDS011;9489;50.948;3.114;2023-07-28T09:35:57;0.85;;;0.80;;
18720;SDS011;9489;50.948;3.114;2023-07-28T09:38:41;2.22;;;0.73;;
18720;SDS011;9489;50.948;3.114;2023-07-28T09:41:07;1.27;;;1.00;;
18720;SDS011;9489;50.948;3.114;2023-07-28T09:43:36;0.93;;;0.90;;
18720;SDS011;9489;50.948;3.114;2023-07-28T09:46:03;1.58;;;0.73;;
18720;SDS011;9489;50.948;3.114;2023-07-28T09:48:31;2.53;;;0.90;;
18720;SDS011;9489;50.948;3.114;2023-07-28T09:50:58;1.08;;;0.80;;
18720;SDS011;9489;50.948;3.114;2023-07-28T09:53:27;1.33;;;1.15;;
18720;SDS011;9489;50.948;3.114;2023-07-28T09:55:53;1.40;;;1.27;;
18720;SDS011;9489;50.948;3.114;2023-07-28T09:58:22;1.63;;;0.95;;
18720;SDS011;9489;50.948;3.114;2023-07-28T10:00:50;1.60;;;1.40;;
18720;SDS011;9489;50.948;3.114;2023-07-28T10:03:16;1.50;;;1.30;;
18720;SDS011;9489;50.948;3.114;2023-07-28T10:05:42;2.22;;;1.40;;
18720;SDS011;9489;50.948;3.114;2023-07-28T10:08:09;1.80;;;1.15;;
18720;SDS011;9489;50.948;3.114;2023-07-28T10:10:35;3.10;;;1.85;;
18720;SDS011;9489;50.948;3.114;2023-07-28T10:13:01;3.00;;;1.48;;
18720;SDS011;9489;50.948;3.114;2023-07-28T10:15:29;1.60;;;1.48;;
18720;SDS011;9489;50.948;3.114;2023-07-28T10:17:56;2.22;;;1.65;;
18720;SDS011;9489;50.948;3.114;2023-07-28T10:23:04;1.98;;;1.77;;
18720;SDS011;9489;50.948;3.114;2023-07-28T10:25:35;1.45;;;1.30;;
18720;SDS011;9489;50.948;3.114;2023-07-28T10:28:02;1.60;;;1.50;;
18720;SDS011;9489;50.948;3.114;2023-07-28T10:30:34;2.88;;;1.40;;
18720;SDS011;9489;50.948;3.114;2023-07-28T10:33:01;2.67;;;1.63;;
18720;SDS011;9489;50.948;3.114;2023-07-28T10:35:28;1.95;;;1.48;;
18720;SDS011;9489;50.948;3.114;2023-07-28T10:37:56;1.73;;;1.63;;
18720;SDS011;9489;50.948;3.114;2023-07-28T10:42:57;2.25;;;1.48;;
18720;SDS011;9489;50.948;3.114;2023-07-28T10:45:25;2.15;;;1.50;;
18720;SDS011;9489;50.948;3.114;2023-07-28T10:47:52;1.50;;;1.20;;
18720;SDS011;9489;50.948;3.114;2023-07-28T10:50:21;4.15;;;1.40;;
18720;SDS011;9489;50.948;3.114;2023-07-28T10:52:47;3.30;;;1.80;;
18720;SDS011;9489;50.948;3.114;2023-07-28T10:55:30;2.25;;;1.42;;
18720;SDS011;9489;50.948;3.114;2023-07-28T10:57:57;2.03;;;1.75;;
18720;SDS011;9489;50.948;3.114;2023-07-28T11:00:23;2.15;;;1.92;;
18720;SDS011;9489;50.948;3.114;2023-07-28T11:02:49;2.55;;;2.17;;
18720;SDS011;9489;50.948;3.114;2023-07-28T11:05:23;3.22;;;1.95;;
18720;SDS011;9489;50.948;3.114;2023-07-28T11:07:59;2.05;;;1.90;;
18720;SDS011;9489;50.948;3.114;2023-07-28T11:10:29;2.40;;;1.90;;
18720;SDS011;9489;50.948;3.114;2023-07-28T11:13:01;2.88;;;2.10;;
18720;SDS011;9489;50.948;3.114;2023-07-28T11:15:28;2.42;;;1.60;;
18720;SDS011;9489;50.948;3.114;2023-07-28T11:17:54;2.65;;;1.73;;
18720;SDS011;9489;50.948;3.114;2023-07-28T11:22:51;2.63;;;1.50;;
18720;SDS011;9489;50.948;3.114;2023-07-28T11:25:18;2.35;;;1.50;;
18720;SDS011;9489;50.948;3.114;2023-07-28T11:27:44;1.30;;;1.20;;
18720;SDS011;9489;50.948;3.114;2023-07-28T11:30:14;1.10;;;1.00;;
18720;SDS011;9489;50.948;3.114;2023-07-28T11:32:44;1.88;;;1.05;;
18720;SDS011;9489;50.948;3.114;2023-07-28T11:35:12;1.08;;;0.98;;
18720;SDS011;9489;50.948;3.114;2023-07-28T11:37:40;2.53;;;1.25;;
18720;SDS011;9489;50.948;3.114;2023-07-28T11:40:08;1.42;;;1.23;;
18720;SDS011;9489;50.948;3.114;2023-07-28T11:42:46;1.30;;;1.20;;
18720;SDS011;9489;50.948;3.114;2023-07-28T11:45:14;1.20;;;1.00;;
18720;SDS011;9489;50.948;3.114;2023-07-28T11:47:57;1.08;;;0.98;;
18720;SDS011;9489;50.948;3.114;2023-07-28T11:50:29;1.55;;;0.98;;
18720;SDS011;9489;50.948;3.114;2023-07-28T11:52:59;1.35;;;1.00;;
18720;SDS011;9489;50.948;3.114;2023-07-28T11:55:25;2.22;;;1.33;;
18720;SDS011;9489;50.948;3.114;2023-07-28T11:57:51;1.05;;;0.98;;
18720;SDS011;9489;50.948;3.114;2023-07-28T12:00:17;1.50;;;1.10;;
18720;SDS011;9489;50.948;3.114;2023-07-28T12:02:51;1.38;;;1.27;;
18720;SDS011;9489;50.948;3.114;2023-07-28T12:05:29;1.98;;;1.30;;
18720;SDS011;9489;50.948;3.114;2023-07-28T12:07:55;1.17;;;1.10;;
18720;SDS011;9489;50.948;3.114;2023-07-28T12:10:20;1.65;;;1.30;;
18720;SDS011;9489;50.948;3.114;2023-07-28T12:12:46;1.50;;;1.40;;
18720;SDS011;9489;50.948;3.114;2023-07-28T12:15:19;1.23;;;1.17;;
18720;SDS011;9489;50.948;3.114;2023-07-28T12:23:11;1.20;;;1.10;;
18720;SDS011;9489;50.948;3.114;2023-07-28T12:25:38;1.73;;;1.38;;
18720;SDS011;9489;50.948;3.114;2023-07-28T12:28:04;1.85;;;1.50;;
18720;SDS011;9489;50.948;3.114;2023-07-28T12:30:31;1.98;;;1.25;;
18720;SDS011;9489;50.948;3.114;2023-07-28T12:33:00;4.70;;;1.40;;
18720;SDS011;9489;50.948;3.114;2023-07-28T12:35:26;1.40;;;1.30;;
18720;SDS011;9489;50.948;3.114;2023-07-28T12:37:56;3.80;;;1.42;;
18720;SDS011;9489;50.948;3.114;2023-07-28T12:40:33;1.52;;;1.42;;
18720;SDS011;9489;50.948;3.114;2023-07-28T12:42:59;1.30;;;1.20;;
18720;SDS011;9489;50.948;3.114;2023-07-28T12:45:26;1.63;;;1.10;;
18720;SDS011;9489;50.948;3.114;2023-07-28T12:47:52;1.60;;;1.10;;
18720;SDS011;9489;50.948;3.114;2023-07-28T12:50:19;1.33;;;1.00;;
18720;SDS011;9489;50.948;3.114;2023-07-28T12:52:45;1.55;;;1.40;;
18720;SDS011;9489;50.948;3.114;2023-07-28T12:55:11;2.67;;;1.45;;
18720;SDS011;9489;50.948;3.114;2023-07-28T12:57:37;1.40;;;1.08;;
18720;SDS011;9489;50.948;3.114;2023-07-28T13:00:02;1.23;;;1.13;;
18720;SDS011;9489;50.948;3.114;2023-07-28T13:02:37;1.88;;;1.35;;
18720;SDS011;9489;50.948;3.114;2023-07-28T13:05:06;1.80;;;1.10;;
18720;SDS011;9489;50.948;3.114;2023-07-28T13:07:34;1.45;;;1.35;;
18720;SDS011;9489;50.948;3.114;2023-07-28T13:10:00;1.20;;;1.10;;
18720;SDS011;9489;50.948;3.114;2023-07-28T13:12:25;1.33;;;1.10;;
18720;SDS011;9489;50.948;3.114;2023-07-28T13:14:51;1.17;;;1.08;;
18720;SDS011;9489;50.948;3.114;2023-07-28T13:17:16;1.20;;;1.10;;
18720;SDS011;9489;50.948;3.114;2023-07-28T13:19:42;1.35;;;1.25;;
18720;SDS011;9489;50.948;3.114;2023-07-28T13:22:07;1.65;;;1.40;;
18720;SDS011;9489;50.948;3.114;2023-07-28T13:24:33;1.42;;;1.27;;
18720;SDS011;9489;50.948;3.114;2023-07-28T13:26:58;1.15;;;0.98;;
18720;SDS011;9489;50.948;3.114;2023-07-28T13:29:24;1.48;;;1.38;;
18720;SDS011;9489;50.948;3.114;2023-07-28T13:31:49;1.75;;;1.65;;
18720;SDS011;9489;50.948;3.114;2023-07-28T13:34:15;1.38;;;1.27;;
18720;SDS011;9489;50.948;3.114;2023-07-28T13:36:40;1.90;;;1.25;;
18720;SDS011;9489;50.948;3.114;2023-07-28T13:39:08;1.83;;;1.30;;
18720;SDS011;9489;50.948;3.114;2023-07-28T13:41:34;1.95;;;1.50;;
18720;SDS011;9489;50.948;3.114;2023-07-28T13:43:59;1.30;;;1.20;;
18720;SDS011;9489;50.948;3.114;2023-07-28T13:46:25;1.40;;;1.30;;
18720;SDS011;9489;50.948;3.114;2023-07-28T13:48:51;2.17;;;1.15;;
18720;SDS011;9489;50.948;3.114;2023-07-28T13:51:16;1.55;;;1.25;;
18720;SDS011;9489;50.948;3.114;2023-07-28T13:53:42;2.45;;;1.30;;
18720;SDS011;9489;50.948;3.114;2023-07-28T13:56:07;3.17;;;2.88;;
18720;SDS011;9489;50.948;3.114;2023-07-28T13:58:33;1.58;;;1.42;;
18720;SDS011;9489;50.948;3.114;2023-07-28T14:00:59;1.95;;;1.20;;
18720;SDS011;9489;50.948;3.114;2023-07-28T14:03:24;1.13;;;0.82;;
18720;SDS011;9489;50.948;3.114;2023-07-28T14:05:50;1.25;;;1.13;;
18720;SDS011;9489;50.948;3.114;2023-07-28T14:08:16;1.23;;;1.02;;
18720;SDS011;9489;50.948;3.114;2023-07-28T14:10:45;0.93;;;0.93;;
18720;SDS011;9489;50.948;3.114;2023-07-28T14:13:11;1.42;;;1.10;;
18720;SDS011;9489;50.948;3.114;2023-07-28T14:15:37;1.15;;;0.80;;
18720;SDS011;9489;50.948;3.114;2023-07-28T14:18:03;1.58;;;1.20;;
18720;SDS011;9489;50.948;3.114;2023-07-28T14:20:28;2.20;;;1.00;;
18720;SDS011;9489;50.948;3.114;2023-07-28T14:22:54;2.42;;;1.30;;
18720;SDS011;9489;50.948;3.114;2023-07-28T14:25:20;1.58;;;0.90;;
18720;SDS011;9489;50.948;3.114;2023-07-28T14:27:46;1.23;;;1.13;;
18720;SDS011;9489;50.948;3.114;2023-07-28T14:30:11;1.70;;;1.00;;
18720;SDS011;9489;50.948;3.114;2023-07-28T14:32:37;1.02;;;1.02;;
18720;SDS011;9489;50.948;3.114;2023-07-28T14:35:03;1.35;;;0.98;;
18720;SDS011;9489;50.948;3.114;2023-07-28T14:37:29;1.02;;;1.00;;
18720;SDS011;9489;50.948;3.114;2023-07-28T14:39:54;1.27;;;1.05;;
18720;SDS011;9489;50.948;3.114;2023-07-28T14:42:20;1.60;;;1.05;;
18720;SDS011;9489;50.948;3.114;2023-07-28T14:44:45;1.35;;;1.15;;
18720;SDS011;9489;50.948;3.114;2023-07-28T14:47:11;2.05;;;1.13;;
18720;SDS011;9489;50.948;3.114;2023-07-28T14:49:36;1.10;;;1.00;;
18720;SDS011;9489;50.948;3.114;2023-07-28T14:52:02;1.25;;;0.90;;
18720;SDS011;9489;50.948;3.114;2023-07-28T14:54:28;1.65;;;1.10;;
18720;SDS011;9489;50.948;3.114;2023-07-28T14:56:53;1.13;;;1.02;;
18720;SDS011;9489;50.948;3.114;2023-07-28T14:59:19;1.52;;;1.35;;
18720;SDS011;9489;50.948;3.114;2023-07-28T15:01:45;2.25;;;1.30;;
18720;SDS011;9489;50.948;3.114;2023-07-28T15:04:11;1.15;;;0.90;;
18720;SDS011;9489;50.948;3.114;2023-07-28T15:06:38;1.80;;;1.33;;
18720;SDS011;9489;50.948;3.114;2023-07-28T15:09:04;1.10;;;1.00;;
18720;SDS011;9489;50.948;3.114;2023-07-28T15:11:30;0.90;;;0.90;;
18720;SDS011;9489;50.948;3.114;2023-07-28T15:13:56;1.10;;;1.00;;
18720;SDS011;9489;50.948;3.114;2023-07-28T15:16:22;1.70;;;1.13;;